Time;durP1;ratioP1;P1;durP2;ratioP2;P2;SDS_P1;SDS_P2;PMS_P1;PMS_P2;Temp;Humidity;BMP_temperature;BMP_pressure;BME280_temperature;BME280_humidity;BME280_pressure;Samples;Min_cycle;Max_cycle;Signal;HPM_P1;HPM_P2
2022/08/19 02:47:53;;;;;;;7.82;4.22;;;18.30;99.90;;;;;;5063448;23;88732;-71
2022/08/19 02:50:19;;;;;;;6.30;4.10;;;18.30;99.90;;;;;;4825298;29;86782;-71
2022/08/19 02:52:45;;;;;;;7.72;4.00;;;18.30;99.90;;;;;;4833742;29;87182;-71
2022/08/19 02:55:10;;;;;;;8.25;4.63;;;18.30;99.90;;;;;;4837595;29;87051;-69
2022/08/19 02:57:36;;;;;;;8.30;4.38;;;18.20;99.90;;;;;;4824412;29;86375;-71
2022/08/19 03:00:05;;;;;;;6.53;4.68;;;18.10;99.90;;;;;;4823768;29;88146;-72
2022/08/19 03:02:31;;;;;;;7.25;4.85;;;18.10;99.90;;;;;;4828792;29;87397;-71
2022/08/19 03:04:57;;;;;;;7.47;4.93;;;18.10;99.90;;;;;;4826607;29;86881;-72
2022/08/19 03:07:23;;;;;;;7.70;4.57;;;18.10;99.90;;;;;;4825368;29;86262;-70
2022/08/19 03:09:48;;;;;;;8.38;4.43;;;18.00;99.90;;;;;;4819962;29;86746;-70
2022/08/19 03:12:14;;;;;;;7.28;4.55;;;18.20;99.90;;;;;;4829275;29;87361;-72
2022/08/19 03:14:40;;;;;;;10.68;4.70;;;18.20;99.90;;;;;;4830581;29;87234;-69
2022/08/19 03:17:05;;;;;;;6.70;4.43;;;18.20;99.90;;;;;;4834091;29;86288;-70
2022/08/19 03:19:31;;;;;;;7.95;5.05;;;18.20;99.90;;;;;;4828193;29;86345;-72
2022/08/19 03:21:57;;;;;;;6.68;4.38;;;18.10;99.90;;;;;;4824942;29;86622;-72
2022/08/19 03:24:24;;;;;;;5.93;3.95;;;18.10;99.90;;;;;;4825200;29;87586;-73
2022/08/19 03:26:57;;;;;;;6.13;4.45;;;18.20;99.90;;;;;;4830788;29;86979;-70
2022/08/19 03:29:23;;;;;;;8.38;4.32;;;18.20;99.90;;;;;;4830901;29;85721;-70
2022/08/19 03:31:51;;;;;;;7.07;4.32;;;18.30;99.90;;;;;;4822323;29;87284;-70
2022/08/19 03:34:37;;;;;;;6.63;4.10;;;18.40;99.90;;;;;;4822676;29;86450;-73
2022/08/19 03:37:07;;;;;;;6.35;4.43;;;18.40;99.90;;;;;;4831392;29;87926;-70
2022/08/19 03:39:35;;;;;;;5.90;4.00;;;18.40;99.90;;;;;;4823771;29;86243;-70
2022/08/19 03:42:02;;;;;;;6.15;4.70;;;18.50;99.90;;;;;;4815612;29;87582;-72
2022/08/19 03:44:29;;;;;;;9.18;5.13;;;18.50;99.90;;;;;;4809188;29;87192;-70
2022/08/19 03:46:58;;;;;;;6.63;4.50;;;18.30;99.90;;;;;;4811640;29;86287;-72
2022/08/19 03:49:26;;;;;;;7.93;4.93;;;18.10;99.90;;;;;;4823616;29;86952;-70
2022/08/19 03:51:54;;;;;;;6.40;4.45;;;18.20;99.90;;;;;;4828882;29;87238;-71
2022/08/19 03:54:22;;;;;;;9.52;5.18;;;18.20;99.90;;;;;;4842051;29;86976;-70
2022/08/19 03:56:50;;;;;;;6.13;4.20;;;18.20;99.90;;;;;;4833917;29;86318;-73
2022/08/19 03:59:31;;;;;;;9.38;4.88;;;18.30;99.90;;;;;;4817958;29;86752;-70
2022/08/19 04:02:00;;;;;;;8.48;4.38;;;18.30;99.90;;;;;;4812727;29;91321;-71
2022/08/19 04:04:26;;;;;;;5.97;4.35;;;18.40;99.90;;;;;;4822403;29;87118;-70
2022/08/19 04:06:52;;;;;;;6.53;4.38;;;18.40;99.90;;;;;;4822896;29;86812;-72
2022/08/19 04:09:19;;;;;;;6.55;4.15;;;18.40;99.90;;;;;;4821638;29;86779;-71
2022/08/19 04:11:49;;;;;;;6.47;4.35;;;18.40;99.90;;;;;;4825597;29;88170;-71
2022/08/19 04:14:19;;;;;;;7.32;4.28;;;18.40;99.90;;;;;;4822429;29;87139;-72
2022/08/19 04:16:46;;;;;;;;;;;18.30;99.90;;;;;;4822732;29;86987;-71
2022/08/19 04:19:12;;;;;;;6.47;4.20;;;18.30;99.90;;;;;;4823875;29;85553;-70
2022/08/19 04:21:39;;;;;;;7.75;4.75;;;18.30;99.90;;;;;;4820687;29;87144;-72
2022/08/19 04:24:05;;;;;;;8.68;4.97;;;18.30;99.90;;;;;;4813842;29;89224;-70
2022/08/19 04:26:34;;;;;;;9.43;5.20;;;18.30;99.90;;;;;;4825813;29;87883;-74
2022/08/19 04:29:04;;;;;;;7.25;4.90;;;18.30;99.90;;;;;;4825106;29;87096;-72
2022/08/19 04:31:30;;;;;;;;;;;18.30;99.90;;;;;;4823826;29;86794;-71
2022/08/19 04:33:58;;;;;;;8.13;4.95;;;18.30;99.90;;;;;;4824166;29;86402;-71
2022/08/19 04:36:27;;;;;;;8.82;5.78;;;18.30;99.90;;;;;;4822997;29;86953;-71
2022/08/19 04:38:56;;;;;;;9.00;5.13;;;18.40;99.90;;;;;;4822995;29;87100;-70
2022/08/19 04:44:07;;;;;;;7.78;5.47;;;18.30;99.90;;;;;;4825725;29;87655;-70
2022/08/19 04:46:33;;;;;;;8.38;5.03;;;18.30;99.90;;;;;;4821850;29;87020;-71
2022/08/19 04:49:01;;;;;;;8.75;5.20;;;18.30;99.90;;;;;;4831411;29;86965;-72
2022/08/19 04:51:27;;;;;;;7.55;5.13;;;18.30;99.90;;;;;;4818801;29;88699;-70
2022/08/19 04:53:53;;;;;;;7.25;4.63;;;18.30;99.90;;;;;;4823915;29;87986;-71
2022/08/19 04:56:22;;;;;;;7.25;4.57;;;18.30;99.90;;;;;;4829923;29;87178;-71
2022/08/19 04:58:51;;;;;;;8.10;5.03;;;18.40;99.90;;;;;;4823431;29;86664;-69
2022/08/19 05:01:22;;;;;;;7.85;4.80;;;18.40;99.90;;;;;;4820507;29;87265;-69
2022/08/19 05:03:49;;;;;;;7.65;4.55;;;18.40;99.90;;;;;;4818793;29;86934;-72
2022/08/19 05:06:17;;;;;;;6.97;4.40;;;18.40;99.90;;;;;;4829850;29;86638;-72
2022/08/19 05:08:44;;;;;;;6.50;4.43;;;18.40;99.90;;;;;;4821303;29;85849;-73
2022/08/19 05:11:13;;;;;;;7.32;4.72;;;18.40;99.90;;;;;;4821443;29;87924;-73
2022/08/19 05:13:39;;;;;;;7.15;4.82;;;18.40;99.90;;;;;;4816887;29;86500;-71
2022/08/19 05:16:05;;;;;;;7.10;4.75;;;18.40;99.90;;;;;;4819926;29;88077;-73
2022/08/19 05:24:06;;;;;;;11.27;5.32;;;18.10;99.90;;;;;;4814893;29;86539;-69
2022/08/19 05:26:31;;;;;;;10.40;6.13;;;18.00;99.90;;;;;;4816927;29;86919;-69
2022/08/19 05:28:57;;;;;;;14.60;6.18;;;17.90;99.90;;;;;;4822712;29;86390;-72
2022/08/19 05:31:23;;;;;;;12.25;6.07;;;17.90;99.90;;;;;;4822754;29;87215;-71
2022/08/19 05:33:49;;;;;;;10.75;5.88;;;17.80;99.90;;;;;;4822586;29;87039;-72
2022/08/19 05:36:15;;;;;;;12.93;6.80;;;17.90;99.90;;;;;;4830885;29;86427;-72
2022/08/19 05:38:41;;;;;;;10.23;6.68;;;18.00;99.90;;;;;;4824416;29;87566;-72
2022/08/19 05:41:08;;;;;;;9.65;6.15;;;17.80;99.90;;;;;;4819479;29;88015;-76
2022/08/19 05:43:34;;;;;;;10.70;5.68;;;17.80;99.90;;;;;;4807699;29;89813;-76
2022/08/19 05:46:00;;;;;;;20.00;7.38;;;17.90;99.90;;;;;;4820997;29;86237;-80
2022/08/19 05:48:26;;;;;;;13.20;8.20;;;17.90;99.90;;;;;;4821034;29;86864;-77
2022/08/19 05:50:52;;;;;;;13.75;8.50;;;17.50;99.90;;;;;;4818955;29;87220;-78
2022/08/19 05:53:18;;;;;;;14.40;7.93;;;17.30;99.90;;;;;;4822348;29;86945;-76
2022/08/19 05:55:44;;;;;;;17.25;8.77;;;17.50;99.90;;;;;;4821443;29;86894;-77
2022/08/19 05:58:10;;;;;;;15.68;8.77;;;17.40;99.90;;;;;;4815964;29;86219;-78
2022/08/19 06:00:37;;;;;;;13.27;7.40;;;17.40;99.90;;;;;;4815888;29;86404;-77
2022/08/19 06:03:03;;;;;;;13.27;7.13;;;17.40;99.90;;;;;;4818321;29;86443;-78
2022/08/19 06:05:30;;;;;;;13.05;7.68;;;17.50;99.90;;;;;;4822792;29;87800;-77
2022/08/19 06:07:57;;;;;;;19.85;11.77;;;17.40;99.90;;;;;;4822261;29;87220;-78
2022/08/19 06:10:23;;;;;;;13.25;7.15;;;17.30;99.90;;;;;;4820955;29;89201;-78
2022/08/19 06:12:49;;;;;;;13.35;6.65;;;17.40;99.90;;;;;;4823347;29;86818;-78
2022/08/19 06:15:15;;;;;;;12.20;6.95;;;17.50;99.90;;;;;;4820175;29;86959;-77
2022/08/19 06:17:41;;;;;;;12.10;6.93;;;17.50;99.90;;;;;;4823996;29;87048;-80
2022/08/19 06:20:11;;;;;;;8.73;5.65;;;17.50;99.90;;;;;;4821245;29;87210;-79
2022/08/19 06:22:51;;;;;;;9.98;5.72;;;17.50;99.90;;;;;;4832800;29;86153;-80
2022/08/19 06:25:17;;;;;;;8.13;5.13;;;17.50;99.90;;;;;;4835737;29;86788;-82
2022/08/19 06:27:44;;;;;;;9.27;5.32;;;17.50;99.90;;;;;;4828933;29;86829;-78
2022/08/19 06:30:11;;;;;;;10.43;5.47;;;17.40;99.90;;;;;;4824841;29;87651;-77
2022/08/19 06:32:37;;;;;;;9.52;5.30;;;17.50;99.90;;;;;;4824386;29;87990;-77
2022/08/19 06:35:04;;;;;;;8.75;5.75;;;17.60;99.90;;;;;;4826896;29;86905;-78
2022/08/19 06:37:30;;;;;;;13.48;6.43;;;17.60;99.90;;;;;;4819327;29;87140;-78
2022/08/19 06:39:55;;;;;;;11.18;6.20;;;17.60;99.90;;;;;;4828781;29;87445;-76
2022/08/19 06:42:21;;;;;;;19.00;8.25;;;17.70;99.90;;;;;;4822636;29;87173;-79
2022/08/19 06:44:48;;;;;;;12.18;6.50;;;17.70;99.90;;;;;;4820996;29;87430;-76
2022/08/19 06:47:18;;;;;;;11.95;6.97;;;17.70;99.90;;;;;;4820050;29;85951;-78
2022/08/19 06:49:44;;;;;;;11.95;6.60;;;17.70;99.90;;;;;;4823931;29;86678;-79
2022/08/19 06:52:14;;;;;;;9.18;5.15;;;17.70;99.90;;;;;;4807934;29;88829;-78
2022/08/19 06:54:41;;;;;;;8.75;5.35;;;17.70;99.90;;;;;;4823920;29;87327;-83
2022/08/19 06:57:13;;;;;;;8.95;5.50;;;17.80;99.90;;;;;;4824469;29;86950;-78
2022/08/19 06:59:39;;;;;;;7.95;5.10;;;17.80;99.90;;;;;;4823304;29;87940;-77
2022/08/19 07:02:06;;;;;;;8.38;4.80;;;17.80;99.90;;;;;;4824625;29;87447;-79
2022/08/19 07:04:34;;;;;;;11.15;6.60;;;17.80;99.90;;;;;;4823245;29;86552;-80
2022/08/19 07:07:09;;;;;;;14.70;8.27;;;17.80;99.90;;;;;;4808085;29;86999;-79
2022/08/19 07:09:38;;;;;;;14.05;8.05;;;17.70;99.90;;;;;;4820322;29;91664;-83
2022/08/19 07:12:06;;;;;;;15.23;8.35;;;17.60;99.90;;;;;;4806404;29;94180;-78
2022/08/19 07:14:36;;;;;;;14.75;8.20;;;17.70;99.90;;;;;;4820051;29;91457;-76
2022/08/19 07:17:04;;;;;;;20.55;10.35;;;17.70;99.90;;;;;;4819822;29;91644;-78
2022/08/19 07:19:31;;;;;;;22.75;12.20;;;17.70;99.90;;;;;;4820676;29;93902;-80
2022/08/19 07:21:59;;;;;;;26.20;13.13;;;17.80;99.90;;;;;;4821957;29;92978;-78
2022/08/19 07:24:25;;;;;;;25.88;12.68;;;17.80;99.90;;;;;;4822762;29;91346;-78
2022/08/19 07:26:54;;;;;;;24.85;12.95;;;17.90;99.90;;;;;;4828354;29;91281;-77
2022/08/19 07:29:24;;;;;;;30.65;6.35;;;17.90;99.90;;;;;;4818962;29;92220;-82
2022/08/19 07:31:56;;;;;;;77.13;9.70;;;18.00;99.90;;;;;;4821900;29;92384;-82
2022/08/19 07:34:23;;;;;;;128.65;8.88;;;17.20;99.90;;;;;;4817707;29;91896;-83
2022/08/19 07:36:49;;;;;;;38.03;4.80;;;16.90;99.90;;;;;;4821895;29;91205;-80
2022/08/19 07:39:24;;;;;;;23.45;6.90;;;16.90;99.90;;;;;;4806514;29;95599;-83
2022/08/19 07:41:52;;;;;;;34.08;6.95;;;16.90;99.90;;;;;;4824390;29;93804;-84
2022/08/19 07:44:19;;;;;;;37.67;7.85;;;16.80;99.90;;;;;;4824380;29;92477;-79
2022/08/19 07:46:49;;;;;;;56.10;11.15;;;17.10;99.90;;;;;;4820889;29;91427;-82
2022/08/19 07:49:18;;;;;;;56.15;10.85;;;17.10;99.90;;;;;;4826367;29;95651;-82
2022/08/19 07:51:53;;;;;;;;;;;17.10;99.90;;;;;;4819640;29;95660;-80
2022/08/19 07:54:20;;;;;;;58.47;11.07;;;17.20;99.90;;;;;;4806209;29;91356;-79
2022/08/19 07:56:46;;;;;;;70.38;12.57;;;17.30;99.90;;;;;;4819319;29;91982;-78
2022/08/19 07:59:13;;;;;;;75.25;12.23;;;17.10;99.90;;;;;;4823064;29;93568;-82
2022/08/19 08:01:39;;;;;;;35.03;9.50;;;17.30;99.90;;;;;;4816859;29;91484;-80
2022/08/19 08:09:38;;;;;;;19.83;5.70;;;17.30;99.90;;;;;;4823899;29;93707;-78
2022/08/19 08:12:09;;;;;;;41.70;8.75;;;17.10;99.90;;;;;;4826718;29;93072;-82
2022/08/19 08:14:47;;;;;;;44.25;8.98;;;17.20;99.90;;;;;;4814998;29;92368;-81
2022/08/19 08:17:14;;;;;;;29.30;7.47;;;17.30;99.90;;;;;;4818103;29;91308;-77
2022/08/19 08:19:41;;;;;;;33.65;9.25;;;17.10;99.90;;;;;;4824768;29;91662;-80
2022/08/19 08:23:21;;;;;;;35.50;9.60;;;17.10;99.90;;;;;;4806628;29;93339;-77
2022/08/19 08:24:54;;;;;;;47.40;10.95;;;17.10;99.90;;;;;;4823566;29;91705;-80
2022/08/19 08:27:20;;;;;;;24.58;8.95;;;17.10;99.90;;;;;;4814462;29;91259;-78
2022/08/19 08:29:45;;;;;;;38.83;11.25;;;17.00;99.90;;;;;;4820168;29;92379;-79
2022/08/19 08:32:11;;;;;;;36.67;9.85;;;17.20;99.90;;;;;;4818328;29;92697;-78
2022/08/19 08:34:37;;;;;;;38.33;10.07;;;17.30;99.90;;;;;;4822042;29;93175;-79
2022/08/19 08:37:03;;;;;;;39.35;11.00;;;17.30;99.90;;;;;;4815881;29;91368;-77
2022/08/19 08:39:29;;;;;;;41.88;11.13;;;17.20;99.90;;;;;;4823091;29;92610;-79
2022/08/19 08:42:33;;;;;;;42.88;11.55;;;17.30;99.90;;;;;;4822285;29;91988;-78
2022/08/19 08:45:02;;;;;;;60.08;13.30;;;17.20;99.90;;;;;;4816660;29;91539;-78
2022/08/19 08:47:39;;;;;;;44.47;12.50;;;17.30;99.90;;;;;;4820379;29;91889;-79
2022/08/19 08:50:19;;;;;;;54.42;13.82;;;17.40;99.90;;;;;;4799717;29;95406;-78
2022/08/19 08:52:47;;;;;;;53.70;13.48;;;17.50;99.90;;;;;;4823789;29;91568;-77
2022/08/19 08:55:16;;;;;;;63.38;15.95;;;17.60;99.90;;;;;;4827741;29;91898;-78
2022/08/19 08:57:54;;;;;;;59.83;16.38;;;17.50;99.90;;;;;;4821063;29;93594;-78
2022/08/19 09:00:36;;;;;;;54.22;15.65;;;17.40;99.90;;;;;;4813961;29;97816;-78
2022/08/19 09:03:16;;;;;;;53.33;12.93;;;17.50;99.90;;;;;;4806750;29;96297;-77
2022/08/19 09:05:50;;;;;;;37.08;11.35;;;17.30;99.90;;;;;;4820315;29;91556;-78
2022/08/19 09:08:23;;;;;;;41.30;11.60;;;17.30;99.90;;;;;;4821710;29;93266;-78
2022/08/19 09:10:52;;;;;;;61.45;13.93;;;17.50;99.90;;;;;;4807699;29;95371;-78
2022/08/19 09:13:48;;;;;;;75.63;15.73;;;17.50;99.90;;;;;;4822014;29;91314;-77
2022/08/19 09:16:20;;;;;;;31.42;10.60;;;17.70;99.90;;;;;;4807709;29;91624;-78
2022/08/19 09:18:52;;;;;;;66.47;14.65;;;17.80;99.90;;;;;;4822760;29;90591;-78
2022/08/19 09:21:20;;;;;;;40.67;13.25;;;17.70;99.90;;;;;;4822998;29;93016;-79
2022/08/19 09:23:46;;;;;;;46.72;14.23;;;17.70;99.90;;;;;;4804602;29;93663;-78
2022/08/19 09:26:15;;;;;;;32.53;12.45;;;17.70;99.90;;;;;;4819680;29;92300;-78
2022/08/19 09:28:43;;;;;;;49.97;14.82;;;17.70;99.90;;;;;;4832377;29;91740;-79
2022/08/19 09:31:18;;;;;;;53.78;15.90;;;17.60;99.90;;;;;;4822667;29;93023;-77
2022/08/19 09:33:44;;;;;;;49.90;15.20;;;17.30;99.90;;;;;;4817477;29;94317;-78
2022/08/19 09:36:12;;;;;;;57.83;16.30;;;17.20;99.90;;;;;;4808291;29;91395;-80
2022/08/19 09:38:40;;;;;;;46.30;15.15;;;17.20;99.90;;;;;;4817273;29;91823;-80
2022/08/19 09:41:11;;;;;;;60.45;16.63;;;17.10;99.90;;;;;;4828546;29;92985;-78
2022/08/19 09:43:36;;;;;;;56.15;16.20;;;17.10;99.90;;;;;;4816378;29;91350;-78
2022/08/19 09:46:06;;;;;;;46.45;15.23;;;17.30;99.90;;;;;;4807927;29;91187;-78
2022/08/19 09:48:32;;;;;;;51.13;14.32;;;17.50;99.90;;;;;;4819439;29;91299;-79
2022/08/19 09:51:06;;;;;;;39.17;11.95;;;17.50;99.90;;;;;;4823175;29;92976;-80
2022/08/19 09:53:32;;;;;;;31.80;10.32;;;17.30;99.90;;;;;;4822079;29;92406;-78
2022/08/19 09:55:57;;;;;;;30.42;10.70;;;17.40;99.90;;;;;;4822494;29;91315;-78
2022/08/19 09:58:27;;;;;;;29.70;10.63;;;17.50;99.90;;;;;;4815597;29;91410;-79
2022/08/19 10:00:57;;;;;;;;;;;17.50;99.90;;;;;;4823494;29;91908;-78
2022/08/19 10:03:23;;;;;;;45.25;12.48;;;17.50;99.90;;;;;;4816182;29;93293;-79
2022/08/19 10:05:49;;;;;;;34.90;12.00;;;17.30;99.90;;;;;;4803566;29;92079;-80
2022/08/19 10:08:18;;;;;;;38.50;12.48;;;17.40;99.90;;;;;;4821155;29;91059;-79
2022/08/19 10:10:44;;;;;;;41.25;12.48;;;17.50;99.90;;;;;;4818582;29;95240;-79
2022/08/19 10:13:10;;;;;;;31.67;10.82;;;17.40;99.90;;;;;;4817982;29;93800;-79
2022/08/19 10:15:38;;;;;;;25.75;9.70;;;17.20;99.90;;;;;;4819372;29;92985;-79
2022/08/19 10:18:05;;;;;;;28.02;8.27;;;17.10;99.90;;;;;;4818558;29;93662;-79
2022/08/19 10:20:31;;;;;;;26.02;7.95;;;17.20;99.90;;;;;;4819382;29;92811;-80
2022/08/19 10:22:59;;;;;;;12.52;5.07;;;17.20;99.90;;;;;;4822554;29;91929;-79
2022/08/19 10:25:26;;;;;;;9.68;3.60;;;17.10;99.90;;;;;;4826761;29;91324;-78
2022/08/19 10:27:52;;;;;;;7.95;3.17;;;17.20;99.90;;;;;;4827630;29;91933;-79
2022/08/19 10:30:18;;;;;;;13.05;4.50;;;17.20;99.90;;;;;;4821181;29;92322;-78
2022/08/19 10:32:45;;;;;;;9.45;4.45;;;17.00;99.90;;;;;;4820060;29;91647;-80
2022/08/19 10:35:12;;;;;;;23.13;6.53;;;17.00;99.90;;;;;;4821796;29;91753;-82
2022/08/19 10:37:38;;;;;;;10.73;3.95;;;17.00;99.90;;;;;;4818221;29;91451;-80
2022/08/19 10:40:08;;;;;;;16.38;5.70;;;17.00;99.90;;;;;;4818148;29;92716;-80
2022/08/19 10:42:34;;;;;;;11.20;4.43;;;17.10;99.90;;;;;;4820225;29;92750;-76
2022/08/19 10:45:01;;;;;;;12.95;4.18;;;17.10;99.90;;;;;;4817921;29;91365;-77
2022/08/19 10:47:27;;;;;;;10.07;4.15;;;17.10;99.90;;;;;;4813083;29;92593;-76
2022/08/19 10:52:44;;;;;;;11.35;4.65;;;17.10;99.90;;;;;;4821043;29;91964;-78
2022/08/19 10:57:54;;;;;;;23.75;7.72;;;17.20;99.90;;;;;;4825717;29;90939;-76
2022/08/19 11:00:22;;;;;;;27.98;9.02;;;17.20;99.90;;;;;;4822287;29;92546;-78
2022/08/19 11:02:48;;;;;;;25.38;10.73;;;17.20;99.90;;;;;;4821431;29;92180;-76
2022/08/19 11:05:14;;;;;;;27.90;11.20;;;17.10;99.90;;;;;;4831022;29;92696;-76
2022/08/19 11:07:41;;;;;;;29.05;12.25;;;17.10;99.90;;;;;;4822211;29;91375;-79
2022/08/19 11:10:09;;;;;;;26.52;12.05;;;17.20;99.90;;;;;;4821668;29;91652;-77
2022/08/19 11:12:39;;;;;;;46.33;15.35;;;17.20;99.90;;;;;;4831803;29;93856;-76
2022/08/19 11:15:10;;;;;;;28.88;12.95;;;17.30;99.90;;;;;;4818031;29;91401;-76
2022/08/19 11:17:43;;;;;;;31.60;12.52;;;17.30;99.90;;;;;;4819410;29;92184;-78
2022/08/19 11:20:13;;;;;;;33.85;13.23;;;17.50;99.90;;;;;;4815977;29;92073;-77
2022/08/19 11:22:40;;;;;;;32.92;13.57;;;17.40;99.90;;;;;;4816377;29;92610;-80
2022/08/19 11:25:06;;;;;;;28.45;12.38;;;17.40;99.90;;;;;;4823521;29;91874;-79
2022/08/19 11:27:33;;;;;;;33.72;13.98;;;17.30;99.90;;;;;;4819536;29;91294;-76
2022/08/19 11:30:00;;;;;;;28.80;12.43;;;17.30;99.90;;;;;;4821576;29;92974;-78
2022/08/19 11:32:27;;;;;;;29.77;12.20;;;17.30;99.90;;;;;;4817177;29;93064;-76
2022/08/19 11:34:53;;;;;;;32.42;12.93;;;17.40;99.90;;;;;;4818948;29;91667;-76
2022/08/19 11:37:18;;;;;;;26.23;11.70;;;17.40;99.90;;;;;;4819742;29;92085;-79
2022/08/19 11:39:44;;;;;;;37.55;13.52;;;17.40;99.90;;;;;;4820190;29;93047;-77
2022/08/19 11:43:10;;;;;;;34.90;13.57;;;17.50;99.90;;;;;;4819645;29;92164;-79
2022/08/19 11:45:05;;;;;;;24.40;10.95;;;17.40;99.90;;;;;;4814303;29;92087;-78
2022/08/19 11:47:31;;;;;;;26.13;11.85;;;17.30;99.90;;;;;;4821265;29;90762;-77
2022/08/19 11:49:56;;;;;;;20.23;9.55;;;17.50;99.90;;;;;;4823423;29;94235;-76
2022/08/19 11:52:23;;;;;;;16.48;8.30;;;17.40;99.90;;;;;;4820210;29;92382;-77
2022/08/19 11:54:48;;;;;;;12.80;7.43;;;17.40;99.90;;;;;;4822285;29;93200;-77
2022/08/19 11:57:16;;;;;;;8.77;4.85;;;17.30;99.90;;;;;;4821080;29;91774;-77
2022/08/19 11:59:47;;;;;;;8.10;4.78;;;17.30;99.90;;;;;;4818797;29;91572;-76
2022/08/19 12:02:15;;;;;;;10.55;5.13;;;17.30;99.90;;;;;;4814985;29;91344;-80
2022/08/19 12:04:40;;;;;;;10.70;5.43;;;17.40;99.90;;;;;;4819672;29;91441;-78
2022/08/19 12:07:06;;;;;;;10.00;5.05;;;17.50;99.90;;;;;;4824304;29;91884;-80
2022/08/19 12:09:34;;;;;;;9.35;4.78;;;17.40;99.90;;;;;;4822804;29;92268;-77
2022/08/19 12:12:01;;;;;;;9.27;4.78;;;17.30;99.90;;;;;;4820887;29;91207;-77
2022/08/19 12:14:29;;;;;;;8.80;4.82;;;17.30;99.90;;;;;;4823241;29;92082;-78
2022/08/19 12:16:55;;;;;;;6.38;4.00;;;17.40;99.90;;;;;;4826536;29;91374;-78
2022/08/19 12:19:21;;;;;;;8.70;4.68;;;17.50;99.90;;;;;;4824057;29;92665;-78
2022/08/19 12:21:47;;;;;;;5.65;3.50;;;17.50;99.90;;;;;;4821541;29;92104;-78
2022/08/19 12:24:13;;;;;;;7.72;3.80;;;17.50;99.90;;;;;;4827073;29;91980;-81
2022/08/19 12:26:39;;;;;;;8.50;3.83;;;17.50;99.90;;;;;;4825249;29;91385;-77
2022/08/19 12:29:05;;;;;;;6.50;3.30;;;17.50;99.90;;;;;;4826699;29;92603;-76
2022/08/19 12:31:31;;;;;;;6.45;3.45;;;17.70;99.90;;;;;;4813889;29;93074;-73
2022/08/19 12:33:57;;;;;;;5.22;2.50;;;17.70;99.90;;;;;;4825580;29;93030;-79
2022/08/19 12:36:24;;;;;;;5.97;3.03;;;17.80;99.90;;;;;;4819651;29;91321;-77
2022/08/19 12:38:50;;;;;;;5.50;2.60;;;17.80;99.90;;;;;;4827240;29;92972;-78
2022/08/19 12:41:18;;;;;;;3.90;2.35;;;17.80;99.90;;;;;;4819315;29;91387;-76
2022/08/19 12:43:44;;;;;;;4.68;2.78;;;17.70;99.90;;;;;;4816308;29;92301;-74
2022/08/19 12:46:10;;;;;;;6.00;3.58;;;17.50;99.90;;;;;;4826539;29;91341;-79
2022/08/19 12:48:39;;;;;;;9.32;4.65;;;17.50;99.90;;;;;;4823738;29;92254;-76
2022/08/19 12:51:10;;;;;;;7.40;4.28;;;17.50;99.90;;;;;;4821756;29;91295;-77
2022/08/19 12:53:37;;;;;;;7.45;4.13;;;17.50;99.90;;;;;;4826866;29;91317;-77
2022/08/19 12:56:03;;;;;;;8.93;4.50;;;17.50;99.90;;;;;;4818150;29;91364;-77
2022/08/19 12:58:29;;;;;;;8.52;4.57;;;17.50;99.90;;;;;;4817023;29;92783;-75
2022/08/19 13:00:54;;;;;;;8.30;4.72;;;17.60;99.90;;;;;;4818214;29;91115;-76
2022/08/19 13:03:22;;;;;;;8.13;4.63;;;17.90;99.90;;;;;;4808300;29;91838;-76
2022/08/19 13:05:50;;;;;;;9.95;5.07;;;17.80;99.90;;;;;;4815178;29;92168;-76
2022/08/19 13:08:16;;;;;;;10.63;5.57;;;17.80;99.90;;;;;;4814500;29;93064;-77
2022/08/19 13:10:42;;;;;;;12.60;5.72;;;17.80;99.90;;;;;;4818289;29;92162;-77
2022/08/19 13:13:09;;;;;;;9.65;5.20;;;17.80;99.90;;;;;;4828209;29;92037;-76
2022/08/19 13:15:39;;;;;;;10.90;5.50;;;17.60;99.90;;;;;;4819210;29;91701;-75
2022/08/19 13:18:06;;;;;;;14.98;7.32;;;17.50;99.90;;;;;;4813572;29;92799;-76
2022/08/19 13:20:32;;;;;;;10.48;5.82;;;17.50;99.90;;;;;;4799854;29;93099;-77
2022/08/19 13:22:58;;;;;;;11.63;6.55;;;17.50;99.90;;;;;;4818427;29;91420;-76
2022/08/19 13:25:25;;;;;;;12.35;6.95;;;17.40;99.90;;;;;;4817049;29;91161;-75
2022/08/19 13:27:51;;;;;;;17.83;8.55;;;17.50;99.90;;;;;;4815142;29;91567;-78
2022/08/19 13:33:12;;;;;;;14.68;8.57;;;17.50;99.90;;;;;;4819482;29;92685;-77
2022/08/19 13:35:49;;;;;;;16.38;9.25;;;17.60;99.90;;;;;;4813975;29;92282;-77
2022/08/19 13:38:18;;;;;;;20.35;9.73;;;17.50;99.90;;;;;;4821078;29;93149;-78
2022/08/19 13:40:44;;;;;;;18.85;10.10;;;17.50;99.90;;;;;;4826300;29;92438;-77
2022/08/19 13:43:10;;;;;;;16.80;9.40;;;17.50;99.90;;;;;;4821081;29;91389;-79
2022/08/19 13:45:36;;;;;;;19.58;9.95;;;17.40;99.90;;;;;;4826716;29;91824;-75
2022/08/19 13:48:08;;;;;;;17.48;10.65;;;17.40;99.90;;;;;;4820979;29;93428;-76
2022/08/19 13:50:38;;;;;;;21.80;11.85;;;17.30;99.90;;;;;;4819629;29;92401;-78
2022/08/19 13:53:04;;;;;;;21.67;12.52;;;17.40;99.90;;;;;;4833389;29;91751;-76
2022/08/19 13:55:29;;;;;;;20.70;11.93;;;17.40;99.90;;;;;;4826393;29;91333;-78
2022/08/19 13:57:57;;;;;;;22.35;12.73;;;17.40;99.90;;;;;;4821014;29;92588;-76
2022/08/19 14:00:26;;;;;;;21.92;12.65;;;17.40;99.90;;;;;;4817826;29;93414;-78
2022/08/19 14:02:55;;;;;;;17.92;10.57;;;17.40;99.90;;;;;;4821017;29;92660;-73
2022/08/19 14:05:21;;;;;;;20.80;11.07;;;17.30;99.90;;;;;;4822187;29;91896;-75
2022/08/19 14:07:47;;;;;;;19.13;11.13;;;17.40;99.90;;;;;;4823164;29;92395;-80
2022/08/19 14:10:13;;;;;;;18.80;11.30;;;17.40;99.90;;;;;;4820063;29;92098;-79
2022/08/19 14:12:40;;;;;;;20.48;10.80;;;17.50;99.90;;;;;;4820673;29;91676;-79
2022/08/19 14:15:08;;;;;;;18.73;11.45;;;17.50;99.90;;;;;;4826405;29;90786;-79
2022/08/19 14:17:36;;;;;;;17.63;10.60;;;17.50;99.90;;;;;;4821118;29;95345;-79
2022/08/19 14:20:08;;;;;;;18.88;11.02;;;17.40;99.90;;;;;;4826530;29;91828;-79
2022/08/19 14:22:35;;;;;;;17.92;10.82;;;17.40;99.90;;;;;;4826859;29;93581;-78
2022/08/19 14:25:01;;;;;;;18.88;10.77;;;17.50;99.90;;;;;;4822770;29;91935;-75
2022/08/19 14:27:26;;;;;;;16.65;10.30;;;17.50;99.90;;;;;;4827552;29;91792;-77
2022/08/19 14:29:52;;;;;;;15.32;9.93;;;17.50;99.90;;;;;;4824802;29;92116;-77
2022/08/19 14:32:18;;;;;;;15.27;10.00;;;17.50;99.90;;;;;;4825434;29;91391;-74
2022/08/19 14:34:47;;;;;;;16.08;9.95;;;17.50;99.90;;;;;;4827259;29;93209;-74
2022/08/19 14:37:14;;;;;;;15.93;10.35;;;17.50;99.90;;;;;;4820260;29;92873;-77
2022/08/19 14:39:41;;;;;;;20.58;12.23;;;17.40;99.90;;;;;;4822967;29;91934;-77
2022/08/19 14:42:08;;;;;;;11.02;6.43;;;17.30;99.90;;;;;;4825986;29;91402;-77
2022/08/19 14:44:34;;;;;;;9.02;5.45;;;17.50;99.90;;;;;;4838519;29;91847;-78
2022/08/19 14:47:00;;;;;;;9.45;4.43;;;17.30;99.90;;;;;;4824350;29;93138;-78
2022/08/19 14:49:26;;;;;;;10.98;5.43;;;17.30;99.90;;;;;;4828514;29;93151;-76
2022/08/19 14:51:52;;;;;;;10.40;6.15;;;17.10;99.90;;;;;;4826766;29;93513;-76
2022/08/19 14:54:17;;;;;;;5.65;3.17;;;17.10;99.90;;;;;;4829670;29;91472;-78
2022/08/19 14:56:44;;;;;;;4.78;2.80;;;17.10;99.90;;;;;;4824565;29;92201;-76
2022/08/19 14:59:09;;;;;;;5.35;2.97;;;17.20;99.90;;;;;;4834289;29;92324;-78
2022/08/19 15:01:36;;;;;;;5.00;2.75;;;17.10;99.90;;;;;;4834105;29;91221;-77
2022/08/19 15:04:01;;;;;;;4.90;2.05;;;17.10;99.90;;;;;;4823444;29;90876;-77
2022/08/19 15:06:28;;;;;;;8.10;3.30;;;17.00;99.90;;;;;;4824417;29;92176;-77
2022/08/19 15:08:54;;;;;;;8.30;4.38;;;17.20;99.90;;;;;;4820875;29;91411;-78
2022/08/19 15:11:24;;;;;;;12.57;7.90;;;17.40;99.90;;;;;;4822507;29;92274;-79
2022/08/19 15:13:51;;;;;;;17.27;8.95;;;17.40;99.90;;;;;;4828190;29;91509;-78
2022/08/19 15:16:18;;;;;;;16.40;11.00;;;17.50;99.90;;;;;;4822162;29;92058;-78
2022/08/19 15:18:44;;;;;;;17.23;11.38;;;17.30;99.90;;;;;;4826518;29;91841;-77
2022/08/19 15:21:12;;;;;;;18.30;12.07;;;17.50;99.90;;;;;;4829215;29;91327;-79
2022/08/19 15:23:38;;;;;;;18.17;11.88;;;17.60;99.90;;;;;;4825923;29;91592;-78
2022/08/19 15:26:04;;;;;;;17.77;11.65;;;17.70;99.90;;;;;;4818412;29;92368;-75
2022/08/19 15:28:32;;;;;;;19.15;12.15;;;17.60;99.90;;;;;;4822328;29;92062;-75
2022/08/19 15:30:58;;;;;;;19.95;13.02;;;17.60;99.90;;;;;;4818089;29;92002;-78
2022/08/19 15:33:24;;;;;;;18.70;11.63;;;17.60;99.90;;;;;;4819438;29;91394;-77
2022/08/19 15:35:50;;;;;;;10.10;5.13;;;17.80;99.90;;;;;;4821109;29;93088;-77
2022/08/19 15:38:20;;;;;;;9.80;5.90;;;17.60;99.90;;;;;;4827553;29;93583;-78
2022/08/19 15:40:48;;;;;;;11.20;6.35;;;17.60;99.90;;;;;;4832844;29;91360;-77
2022/08/19 15:43:15;;;;;;;9.38;5.95;;;17.80;99.90;;;;;;4832881;29;91808;-75
2022/08/19 15:45:43;;;;;;;15.52;9.35;;;17.70;99.90;;;;;;4836467;29;93715;-77
2022/08/19 15:48:09;;;;;;;9.93;6.43;;;17.60;99.90;;;;;;4823445;29;91968;-78
2022/08/19 15:50:34;;;;;;;14.35;8.85;;;17.60;99.90;;;;;;4821618;29;91342;-78